sensor_id;sensor_type;location;lat;lon;timestamp;P1;durP1;ratioP1;P2;durP2;ratioP2
7703;SDS011;3894;49.700;10.770;2023-04-15T00:01:57;5.30;;;1.60;;
7703;SDS011;3894;49.700;10.770;2023-04-15T00:04:25;6.68;;;1.58;;
7703;SDS011;3894;49.700;10.770;2023-04-15T00:06:52;6.55;;;1.52;;
7703;SDS011;3894;49.700;10.770;2023-04-15T00:09:21;4.90;;;1.63;;
7703;SDS011;3894;49.700;10.770;2023-04-15T00:11:49;6.10;;;2.50;;
7703;SDS011;3894;49.700;10.770;2023-04-15T00:14:15;5.53;;;2.25;;
7703;SDS011;3894;49.700;10.770;2023-04-15T00:16:41;6.90;;;1.95;;
7703;SDS011;3894;49.700;10.770;2023-04-15T00:19:10;6.43;;;1.92;;
7703;SDS011;3894;49.700;10.770;2023-04-15T00:21:35;6.75;;;1.98;;
7703;SDS011;3894;49.700;10.770;2023-04-15T00:24:01;7.07;;;2.28;;
7703;SDS011;3894;49.700;10.770;2023-04-15T00:26:29;6.38;;;1.60;;
7703;SDS011;3894;49.700;10.770;2023-04-15T00:28:58;5.68;;;2.17;;
7703;SDS011;3894;49.700;10.770;2023-04-15T00:31:24;7.88;;;1.90;;
7703;SDS011;3894;49.700;10.770;2023-04-15T00:33:50;5.70;;;1.95;;
7703;SDS011;3894;49.700;10.770;2023-04-15T00:36:18;5.75;;;2.17;;
7703;SDS011;3894;49.700;10.770;2023-04-15T00:38:43;6.43;;;2.28;;
7703;SDS011;3894;49.700;10.770;2023-04-15T00:41:09;5.22;;;2.00;;
7703;SDS011;3894;49.700;10.770;2023-04-15T00:43:35;9.85;;;3.35;;
7703;SDS011;3894;49.700;10.770;2023-04-15T00:46:01;8.02;;;3.00;;
7703;SDS011;3894;49.700;10.770;2023-04-15T00:48:33;6.47;;;1.85;;
7703;SDS011;3894;49.700;10.770;2023-04-15T00:51:02;5.05;;;1.92;;
7703;SDS011;3894;49.700;10.770;2023-04-15T00:53:28;6.70;;;2.17;;
7703;SDS011;3894;49.700;10.770;2023-04-15T00:55:57;8.60;;;2.25;;
7703;SDS011;3894;49.700;10.770;2023-04-15T00:58:23;6.57;;;2.13;;
7703;SDS011;3894;49.700;10.770;2023-04-15T01:00:49;5.15;;;2.35;;
7703;SDS011;3894;49.700;10.770;2023-04-15T01:03:21;6.13;;;1.88;;
7703;SDS011;3894;49.700;10.770;2023-04-15T01:05:49;6.55;;;2.20;;
7703;SDS011;3894;49.700;10.770;2023-04-15T01:08:21;5.50;;;1.90;;
7703;SDS011;3894;49.700;10.770;2023-04-15T01:10:59;8.20;;;2.17;;
7703;SDS011;3894;49.700;10.770;2023-04-15T01:13:27;6.57;;;1.88;;
7703;SDS011;3894;49.700;10.770;2023-04-15T01:15:57;7.20;;;2.15;;
7703;SDS011;3894;49.700;10.770;2023-04-15T01:18:23;4.70;;;1.48;;
7703;SDS011;3894;49.700;10.770;2023-04-15T01:20:51;4.88;;;1.80;;
7703;SDS011;3894;49.700;10.770;2023-04-15T01:23:17;4.70;;;1.67;;
7703;SDS011;3894;49.700;10.770;2023-04-15T01:25:44;5.55;;;1.88;;
7703;SDS011;3894;49.700;10.770;2023-04-15T01:28:13;4.30;;;1.52;;
7703;SDS011;3894;49.700;10.770;2023-04-15T01:30:39;5.40;;;2.03;;
7703;SDS011;3894;49.700;10.770;2023-04-15T01:36:26;7.03;;;1.85;;
7703;SDS011;3894;49.700;10.770;2023-04-15T01:38:52;5.40;;;1.77;;
7703;SDS011;3894;49.700;10.770;2023-04-15T01:41:25;7.65;;;2.42;;
7703;SDS011;3894;49.700;10.770;2023-04-15T01:43:51;8.30;;;2.45;;
7703;SDS011;3894;49.700;10.770;2023-04-15T01:46:21;7.00;;;2.63;;
7703;SDS011;3894;49.700;10.770;2023-04-15T01:48:47;5.53;;;1.75;;
7703;SDS011;3894;49.700;10.770;2023-04-15T01:51:12;5.28;;;1.88;;
7703;SDS011;3894;49.700;10.770;2023-04-15T01:53:38;5.22;;;1.85;;
7703;SDS011;3894;49.700;10.770;2023-04-15T01:56:03;5.53;;;1.90;;
7703;SDS011;3894;49.700;10.770;2023-04-15T01:58:29;6.75;;;1.95;;
7703;SDS011;3894;49.700;10.770;2023-04-15T02:00:55;5.60;;;1.88;;
7703;SDS011;3894;49.700;10.770;2023-04-15T02:03:21;6.45;;;2.15;;
7703;SDS011;3894;49.700;10.770;2023-04-15T02:05:52;6.75;;;1.73;;
7703;SDS011;3894;49.700;10.770;2023-04-15T02:08:18;6.35;;;1.92;;
7703;SDS011;3894;49.700;10.770;2023-04-15T02:10:43;6.38;;;2.13;;
7703;SDS011;3894;49.700;10.770;2023-04-15T02:13:09;5.93;;;2.10;;
7703;SDS011;3894;49.700;10.770;2023-04-15T02:15:35;8.30;;;2.42;;
7703;SDS011;3894;49.700;10.770;2023-04-15T02:18:03;8.82;;;2.70;;
7703;SDS011;3894;49.700;10.770;2023-04-15T02:20:29;6.13;;;1.95;;
7703;SDS011;3894;49.700;10.770;2023-04-15T02:22:57;7.00;;;2.20;;
7703;SDS011;3894;49.700;10.770;2023-04-15T02:25:23;5.85;;;1.60;;
7703;SDS011;3894;49.700;10.770;2023-04-15T02:27:50;5.40;;;2.25;;
7703;SDS011;3894;49.700;10.770;2023-04-15T02:30:17;6.47;;;2.20;;
7703;SDS011;3894;49.700;10.770;2023-04-15T02:32:43;8.55;;;3.08;;
7703;SDS011;3894;49.700;10.770;2023-04-15T02:35:09;8.00;;;3.22;;
7703;SDS011;3894;49.700;10.770;2023-04-15T02:37:37;8.50;;;3.03;;
7703;SDS011;3894;49.700;10.770;2023-04-15T02:40:08;7.97;;;3.60;;
7703;SDS011;3894;49.700;10.770;2023-04-15T02:42:40;5.68;;;2.47;;
7703;SDS011;3894;49.700;10.770;2023-04-15T02:45:06;6.07;;;2.20;;
7703;SDS011;3894;49.700;10.770;2023-04-15T02:47:36;5.50;;;2.40;;
7703;SDS011;3894;49.700;10.770;2023-04-15T02:50:09;6.57;;;2.25;;
7703;SDS011;3894;49.700;10.770;2023-04-15T02:52:38;6.35;;;2.10;;
7703;SDS011;3894;49.700;10.770;2023-04-15T02:55:05;5.70;;;2.20;;
7703;SDS011;3894;49.700;10.770;2023-04-15T02:57:34;6.60;;;2.45;;
7703;SDS011;3894;49.700;10.770;2023-04-15T03:00:03;5.65;;;2.22;;
7703;SDS011;3894;49.700;10.770;2023-04-15T03:02:33;5.82;;;2.60;;
7703;SDS011;3894;49.700;10.770;2023-04-15T03:05:00;5.70;;;2.33;;
7703;SDS011;3894;49.700;10.770;2023-04-15T03:07:26;6.38;;;2.65;;
7703;SDS011;3894;49.700;10.770;2023-04-15T03:09:51;7.18;;;3.00;;
7703;SDS011;3894;49.700;10.770;2023-04-15T03:12:17;7.47;;;3.15;;
7703;SDS011;3894;49.700;10.770;2023-04-15T03:14:42;5.18;;;2.13;;
7703;SDS011;3894;49.700;10.770;2023-04-15T03:17:08;6.25;;;2.13;;
7703;SDS011;3894;49.700;10.770;2023-04-15T03:19:34;6.30;;;2.00;;
7703;SDS011;3894;49.700;10.770;2023-04-15T03:21:59;5.78;;;1.90;;
7703;SDS011;3894;49.700;10.770;2023-04-15T03:24:25;7.55;;;2.75;;
7703;SDS011;3894;49.700;10.770;2023-04-15T03:26:54;6.43;;;1.98;;
7703;SDS011;3894;49.700;10.770;2023-04-15T03:29:21;6.05;;;2.15;;
7703;SDS011;3894;49.700;10.770;2023-04-15T03:31:47;6.32;;;2.17;;
7703;SDS011;3894;49.700;10.770;2023-04-15T03:34:13;5.40;;;2.20;;
7703;SDS011;3894;49.700;10.770;2023-04-15T03:36:38;6.20;;;2.17;;
7703;SDS011;3894;49.700;10.770;2023-04-15T03:39:04;7.07;;;2.55;;
7703;SDS011;3894;49.700;10.770;2023-04-15T03:41:30;6.13;;;2.40;;
7703;SDS011;3894;49.700;10.770;2023-04-15T03:43:59;7.88;;;2.78;;
7703;SDS011;3894;49.700;10.770;2023-04-15T03:46:25;7.70;;;2.67;;
7703;SDS011;3894;49.700;10.770;2023-04-15T03:48:50;7.78;;;2.78;;
7703;SDS011;3894;49.700;10.770;2023-04-15T03:51:16;6.80;;;2.33;;
7703;SDS011;3894;49.700;10.770;2023-04-15T03:53:44;6.20;;;2.35;;
7703;SDS011;3894;49.700;10.770;2023-04-15T03:58:41;5.88;;;2.13;;
7703;SDS011;3894;49.700;10.770;2023-04-15T04:01:09;7.18;;;2.92;;
7703;SDS011;3894;49.700;10.770;2023-04-15T04:03:34;8.00;;;3.03;;
7703;SDS011;3894;49.700;10.770;2023-04-15T04:06:01;8.55;;;3.55;;
7703;SDS011;3894;49.700;10.770;2023-04-15T04:08:28;7.20;;;2.45;;
7703;SDS011;3894;49.700;10.770;2023-04-15T04:10:54;7.97;;;3.30;;
7703;SDS011;3894;49.700;10.770;2023-04-15T04:13:21;7.47;;;2.75;;
7703;SDS011;3894;49.700;10.770;2023-04-15T04:15:46;6.40;;;2.80;;
7703;SDS011;3894;49.700;10.770;2023-04-15T04:18:12;6.13;;;2.83;;
7703;SDS011;3894;49.700;10.770;2023-04-15T04:20:38;7.35;;;2.97;;
7703;SDS011;3894;49.700;10.770;2023-04-15T04:23:03;8.25;;;2.47;;
7703;SDS011;3894;49.700;10.770;2023-04-15T04:25:29;6.93;;;2.30;;
7703;SDS011;3894;49.700;10.770;2023-04-15T04:27:58;9.13;;;2.72;;
7703;SDS011;3894;49.700;10.770;2023-04-15T04:30:26;7.55;;;2.58;;
7703;SDS011;3894;49.700;10.770;2023-04-15T04:32:52;7.97;;;3.10;;
7703;SDS011;3894;49.700;10.770;2023-04-15T04:35:17;8.45;;;3.60;;
7703;SDS011;3894;49.700;10.770;2023-04-15T04:37:43;9.90;;;4.28;;
7703;SDS011;3894;49.700;10.770;2023-04-15T04:40:12;8.00;;;3.20;;
7703;SDS011;3894;49.700;10.770;2023-04-15T04:42:37;8.43;;;4.25;;
7703;SDS011;3894;49.700;10.770;2023-04-15T04:45:04;10.18;;;4.22;;
7703;SDS011;3894;49.700;10.770;2023-04-15T04:47:33;9.82;;;4.05;;
7703;SDS011;3894;49.700;10.770;2023-04-15T04:50:04;6.32;;;3.10;;
7703;SDS011;3894;49.700;10.770;2023-04-15T04:52:30;9.90;;;3.95;;
7703;SDS011;3894;49.700;10.770;2023-04-15T04:54:56;7.50;;;2.70;;
7703;SDS011;3894;49.700;10.770;2023-04-15T04:57:25;5.50;;;2.25;;
7703;SDS011;3894;49.700;10.770;2023-04-15T04:59:50;15.77;;;5.53;;
7703;SDS011;3894;49.700;10.770;2023-04-15T05:02:16;9.32;;;4.22;;
7703;SDS011;3894;49.700;10.770;2023-04-15T05:04:42;8.10;;;2.85;;
7703;SDS011;3894;49.700;10.770;2023-04-15T05:07:07;7.22;;;2.92;;
7703;SDS011;3894;49.700;10.770;2023-04-15T05:09:33;7.03;;;3.05;;
7703;SDS011;3894;49.700;10.770;2023-04-15T05:12:04;8.02;;;3.17;;
7703;SDS011;3894;49.700;10.770;2023-04-15T05:14:31;7.00;;;3.50;;
7703;SDS011;3894;49.700;10.770;2023-04-15T05:17:00;12.23;;;5.88;;
7703;SDS011;3894;49.700;10.770;2023-04-15T05:19:25;13.70;;;7.10;;
7703;SDS011;3894;49.700;10.770;2023-04-15T05:21:51;16.63;;;8.00;;
7703;SDS011;3894;49.700;10.770;2023-04-15T05:24:17;14.45;;;7.25;;
7703;SDS011;3894;49.700;10.770;2023-04-15T05:26:42;13.48;;;6.50;;
7703;SDS011;3894;49.700;10.770;2023-04-15T05:29:14;13.30;;;7.05;;
7703;SDS011;3894;49.700;10.770;2023-04-15T05:31:46;9.63;;;4.90;;
7703;SDS011;3894;49.700;10.770;2023-04-15T05:34:11;10.52;;;4.63;;
7703;SDS011;3894;49.700;10.770;2023-04-15T05:36:39;10.15;;;4.40;;
7703;SDS011;3894;49.700;10.770;2023-04-15T05:39:11;9.50;;;4.97;;
7703;SDS011;3894;49.700;10.770;2023-04-15T05:41:40;13.80;;;7.95;;
7703;SDS011;3894;49.700;10.770;2023-04-15T05:44:11;10.57;;;5.72;;
7703;SDS011;3894;49.700;10.770;2023-04-15T05:46:42;12.07;;;5.55;;
7703;SDS011;3894;49.700;10.770;2023-04-15T05:49:17;12.43;;;6.40;;
7703;SDS011;3894;49.700;10.770;2023-04-15T05:51:42;13.45;;;6.18;;
7703;SDS011;3894;49.700;10.770;2023-04-15T05:54:08;13.10;;;7.30;;
7703;SDS011;3894;49.700;10.770;2023-04-15T05:56:34;14.68;;;7.00;;
7703;SDS011;3894;49.700;10.770;2023-04-15T05:58:59;12.80;;;6.45;;
7703;SDS011;3894;49.700;10.770;2023-04-15T06:01:28;12.25;;;7.05;;
7703;SDS011;3894;49.700;10.770;2023-04-15T06:03:57;15.00;;;7.13;;
7703;SDS011;3894;49.700;10.770;2023-04-15T06:06:22;13.05;;;6.90;;
7703;SDS011;3894;49.700;10.770;2023-04-15T06:08:49;13.32;;;6.95;;
7703;SDS011;3894;49.700;10.770;2023-04-15T06:11:19;17.98;;;6.53;;
7703;SDS011;3894;49.700;10.770;2023-04-15T06:13:46;16.83;;;7.30;;
7703;SDS011;3894;49.700;10.770;2023-04-15T06:16:14;13.23;;;7.10;;
7703;SDS011;3894;49.700;10.770;2023-04-15T06:18:40;11.98;;;6.30;;
7703;SDS011;3894;49.700;10.770;2023-04-15T06:21:05;11.57;;;6.22;;
7703;SDS011;3894;49.700;10.770;2023-04-15T06:23:35;12.85;;;5.70;;
7703;SDS011;3894;49.700;10.770;2023-04-15T06:26:01;12.00;;;5.47;;
7703;SDS011;3894;49.700;10.770;2023-04-15T06:28:30;12.63;;;5.93;;
7703;SDS011;3894;49.700;10.770;2023-04-15T06:30:55;10.82;;;5.95;;
7703;SDS011;3894;49.700;10.770;2023-04-15T06:33:21;13.95;;;6.15;;
7703;SDS011;3894;49.700;10.770;2023-04-15T06:35:49;11.65;;;5.07;;
7703;SDS011;3894;49.700;10.770;2023-04-15T06:38:14;11.50;;;5.32;;
7703;SDS011;3894;49.700;10.770;2023-04-15T06:40:46;15.25;;;7.13;;
7703;SDS011;3894;49.700;10.770;2023-04-15T06:43:12;11.20;;;5.97;;
7703;SDS011;3894;49.700;10.770;2023-04-15T06:45:40;14.95;;;6.80;;
7703;SDS011;3894;49.700;10.770;2023-04-15T06:48:06;13.32;;;6.60;;
7703;SDS011;3894;49.700;10.770;2023-04-15T06:50:31;13.65;;;5.60;;
7703;SDS011;3894;49.700;10.770;2023-04-15T06:53:00;9.43;;;4.30;;
7703;SDS011;3894;49.700;10.770;2023-04-15T06:55:26;9.80;;;4.07;;
7703;SDS011;3894;49.700;10.770;2023-04-15T06:57:52;8.73;;;4.05;;
7703;SDS011;3894;49.700;10.770;2023-04-15T07:00:18;10.23;;;3.80;;
7703;SDS011;3894;49.700;10.770;2023-04-15T07:02:46;8.60;;;3.25;;
7703;SDS011;3894;49.700;10.770;2023-04-15T07:05:12;8.75;;;3.35;;
7703;SDS011;3894;49.700;10.770;2023-04-15T07:07:37;8.82;;;3.80;;
7703;SDS011;3894;49.700;10.770;2023-04-15T07:10:03;10.07;;;4.50;;
7703;SDS011;3894;49.700;10.770;2023-04-15T07:12:29;8.15;;;2.75;;
7703;SDS011;3894;49.700;10.770;2023-04-15T07:14:55;7.40;;;2.78;;
7703;SDS011;3894;49.700;10.770;2023-04-15T07:17:20;7.93;;;3.03;;
7703;SDS011;3894;49.700;10.770;2023-04-15T07:19:46;6.38;;;2.50;;
7703;SDS011;3894;49.700;10.770;2023-04-15T07:22:12;10.15;;;3.65;;
7703;SDS011;3894;49.700;10.770;2023-04-15T07:24:40;7.25;;;3.05;;
7703;SDS011;3894;49.700;10.770;2023-04-15T07:27:06;7.07;;;3.67;;
7703;SDS011;3894;49.700;10.770;2023-04-15T07:29:34;6.88;;;3.08;;
7703;SDS011;3894;49.700;10.770;2023-04-15T07:32:03;6.25;;;2.25;;
7703;SDS011;3894;49.700;10.770;2023-04-15T07:34:39;6.20;;;2.60;;
7703;SDS011;3894;49.700;10.770;2023-04-15T07:37:13;7.07;;;2.45;;
7703;SDS011;3894;49.700;10.770;2023-04-15T07:39:41;6.90;;;2.47;;
7703;SDS011;3894;49.700;10.770;2023-04-15T07:42:07;7.30;;;2.50;;
7703;SDS011;3894;49.700;10.770;2023-04-15T07:44:36;5.85;;;2.28;;
7703;SDS011;3894;49.700;10.770;2023-04-15T07:47:05;5.43;;;1.77;;
7703;SDS011;3894;49.700;10.770;2023-04-15T07:49:31;6.00;;;2.30;;
7703;SDS011;3894;49.700;10.770;2023-04-15T07:51:57;8.07;;;1.80;;
7703;SDS011;3894;49.700;10.770;2023-04-15T07:54:24;6.40;;;1.92;;
7703;SDS011;3894;49.700;10.770;2023-04-15T07:56:52;5.07;;;1.50;;
7703;SDS011;3894;49.700;10.770;2023-04-15T07:59:18;4.57;;;1.33;;
7703;SDS011;3894;49.700;10.770;2023-04-15T08:01:47;4.00;;;0.98;;
7703;SDS011;3894;49.700;10.770;2023-04-15T08:04:13;4.95;;;1.23;;
7703;SDS011;3894;49.700;10.770;2023-04-15T08:06:41;5.18;;;1.50;;
7703;SDS011;3894;49.700;10.770;2023-04-15T08:09:08;4.32;;;1.10;;
7703;SDS011;3894;49.700;10.770;2023-04-15T08:11:36;4.15;;;1.10;;
7703;SDS011;3894;49.700;10.770;2023-04-15T08:14:02;4.05;;;1.08;;
7703;SDS011;3894;49.700;10.770;2023-04-15T08:16:27;5.97;;;1.80;;
7703;SDS011;3894;49.700;10.770;2023-04-15T08:18:54;4.13;;;0.77;;
7703;SDS011;3894;49.700;10.770;2023-04-15T08:21:20;4.05;;;1.27;;
7703;SDS011;3894;49.700;10.770;2023-04-15T08:23:47;4.13;;;1.23;;
7703;SDS011;3894;49.700;10.770;2023-04-15T08:26:20;4.60;;;1.25;;
7703;SDS011;3894;49.700;10.770;2023-04-15T08:28:49;6.18;;;1.85;;
7703;SDS011;3894;49.700;10.770;2023-04-15T08:31:17;4.95;;;1.52;;
7703;SDS011;3894;49.700;10.770;2023-04-15T08:33:48;4.68;;;1.25;;
7703;SDS011;3894;49.700;10.770;2023-04-15T08:36:21;4.78;;;1.77;;
7703;SDS011;3894;49.700;10.770;2023-04-15T08:38:47;5.68;;;2.15;;
7703;SDS011;3894;49.700;10.770;2023-04-15T08:41:25;7.40;;;2.25;;
7703;SDS011;3894;49.700;10.770;2023-04-15T08:44:02;6.38;;;1.88;;
7703;SDS011;3894;49.700;10.770;2023-04-15T08:49:02;5.28;;;1.42;;
7703;SDS011;3894;49.700;10.770;2023-04-15T08:51:31;4.72;;;1.52;;
7703;SDS011;3894;49.700;10.770;2023-04-15T08:53:58;4.68;;;1.88;;
7703;SDS011;3894;49.700;10.770;2023-04-15T08:56:25;5.57;;;1.42;;
7703;SDS011;3894;49.700;10.770;2023-04-15T08:58:54;6.47;;;1.25;;
7703;SDS011;3894;49.700;10.770;2023-04-15T09:01:21;6.40;;;1.30;;
7703;SDS011;3894;49.700;10.770;2023-04-15T09:03:47;4.13;;;1.13;;
7703;SDS011;3894;49.700;10.770;2023-04-15T09:06:22;4.70;;;1.65;;
7703;SDS011;3894;49.700;10.770;2023-04-15T09:08:51;4.18;;;1.17;;
7703;SDS011;3894;49.700;10.770;2023-04-15T09:11:20;7.63;;;1.40;;
7703;SDS011;3894;49.700;10.770;2023-04-15T09:13:46;4.22;;;1.02;;
7703;SDS011;3894;49.700;10.770;2023-04-15T09:16:16;4.47;;;1.33;;
7703;SDS011;3894;49.700;10.770;2023-04-15T09:18:42;4.60;;;1.10;;
7703;SDS011;3894;49.700;10.770;2023-04-15T09:21:11;4.53;;;1.27;;
7703;SDS011;3894;49.700;10.770;2023-04-15T09:23:57;5.20;;;1.77;;
7703;SDS011;3894;49.700;10.770;2023-04-15T09:26:33;4.40;;;1.25;;
7703;SDS011;3894;49.700;10.770;2023-04-15T09:31:34;4.68;;;1.33;;
7703;SDS011;3894;49.700;10.770;2023-04-15T09:34:05;4.47;;;1.45;;
7703;SDS011;3894;49.700;10.770;2023-04-15T09:36:40;4.95;;;1.40;;
7703;SDS011;3894;49.700;10.770;2023-04-15T09:39:17;4.50;;;1.38;;
7703;SDS011;3894;49.700;10.770;2023-04-15T09:41:43;5.53;;;1.88;;
7703;SDS011;3894;49.700;10.770;2023-04-15T09:44:25;6.43;;;1.73;;
7703;SDS011;3894;49.700;10.770;2023-04-15T09:46:53;5.20;;;1.33;;
7703;SDS011;3894;49.700;10.770;2023-04-15T09:49:19;5.68;;;2.00;;
7703;SDS011;3894;49.700;10.770;2023-04-15T09:51:45;5.60;;;1.90;;
7703;SDS011;3894;49.700;10.770;2023-04-15T09:54:11;6.13;;;1.95;;
7703;SDS011;3894;49.700;10.770;2023-04-15T09:56:39;5.28;;;1.35;;
7703;SDS011;3894;49.700;10.770;2023-04-15T09:59:09;4.95;;;1.95;;
7703;SDS011;3894;49.700;10.770;2023-04-15T10:01:35;4.78;;;1.50;;
7703;SDS011;3894;49.700;10.770;2023-04-15T10:04:02;8.07;;;2.22;;
7703;SDS011;3894;49.700;10.770;2023-04-15T10:06:28;6.70;;;2.30;;
7703;SDS011;3894;49.700;10.770;2023-04-15T10:08:57;5.70;;;2.03;;
7703;SDS011;3894;49.700;10.770;2023-04-15T10:11:27;6.05;;;1.95;;
7703;SDS011;3894;49.700;10.770;2023-04-15T10:13:53;6.45;;;2.63;;
7703;SDS011;3894;49.700;10.770;2023-04-15T10:16:22;8.98;;;3.08;;
7703;SDS011;3894;49.700;10.770;2023-04-15T10:18:55;6.07;;;2.05;;
7703;SDS011;3894;49.700;10.770;2023-04-15T10:21:28;5.50;;;2.15;;
7703;SDS011;3894;49.700;10.770;2023-04-15T10:23:54;5.70;;;2.17;;
7703;SDS011;3894;49.700;10.770;2023-04-15T10:26:25;6.05;;;2.40;;
7703;SDS011;3894;49.700;10.770;2023-04-15T10:28:52;5.22;;;1.42;;
7703;SDS011;3894;49.700;10.770;2023-04-15T10:31:18;5.40;;;2.10;;
7703;SDS011;3894;49.700;10.770;2023-04-15T10:33:44;4.90;;;1.35;;
7703;SDS011;3894;49.700;10.770;2023-04-15T10:36:15;4.68;;;1.63;;
7703;SDS011;3894;49.700;10.770;2023-04-15T10:38:44;4.68;;;1.40;;
7703;SDS011;3894;49.700;10.770;2023-04-15T10:41:23;6.13;;;1.83;;
7703;SDS011;3894;49.700;10.770;2023-04-15T10:46:41;4.82;;;1.88;;
7703;SDS011;3894;49.700;10.770;2023-04-15T10:49:16;8.27;;;3.35;;
7703;SDS011;3894;49.700;10.770;2023-04-15T10:51:56;4.95;;;1.63;;
7703;SDS011;3894;49.700;10.770;2023-04-15T10:56:51;5.13;;;2.47;;
7703;SDS011;3894;49.700;10.770;2023-04-15T10:59:58;6.10;;;1.95;;
7703;SDS011;3894;49.700;10.770;2023-04-15T11:02:45;6.28;;;2.28;;
7703;SDS011;3894;49.700;10.770;2023-04-15T11:05:18;6.28;;;1.58;;
7703;SDS011;3894;49.700;10.770;2023-04-15T11:12:50;4.57;;;1.52;;
7703;SDS011;3894;49.700;10.770;2023-04-15T11:15:24;2.70;;;0.65;;
7703;SDS011;3894;49.700;10.770;2023-04-15T11:18:20;4.70;;;1.40;;
7703;SDS011;3894;49.700;10.770;2023-04-15T11:20:43;3.83;;;0.90;;
7703;SDS011;3894;49.700;10.770;2023-04-15T11:23:09;4.90;;;1.60;;
7703;SDS011;3894;49.700;10.770;2023-04-15T11:25:38;4.60;;;1.27;;
7703;SDS011;3894;49.700;10.770;2023-04-15T11:28:04;3.80;;;0.95;;
7703;SDS011;3894;49.700;10.770;2023-04-15T11:30:32;4.07;;;1.05;;
7703;SDS011;3894;49.700;10.770;2023-04-15T11:32:59;3.33;;;0.98;;
7703;SDS011;3894;49.700;10.770;2023-04-15T11:35:27;2.97;;;1.00;;
7703;SDS011;3894;49.700;10.770;2023-04-15T11:37:55;3.78;;;1.00;;
7703;SDS011;3894;49.700;10.770;2023-04-15T11:40:23;4.18;;;0.98;;
7703;SDS011;3894;49.700;10.770;2023-04-15T11:45:50;3.83;;;1.20;;
7703;SDS011;3894;49.700;10.770;2023-04-15T11:50:51;2.78;;;0.45;;
7703;SDS011;3894;49.700;10.770;2023-04-15T11:53:22;4.03;;;0.90;;
7703;SDS011;3894;49.700;10.770;2023-04-15T11:55:49;2.63;;;0.45;;
7703;SDS011;3894;49.700;10.770;2023-04-15T12:00:50;3.00;;;0.70;;
7703;SDS011;3894;49.700;10.770;2023-04-15T12:03:25;3.90;;;0.80;;
7703;SDS011;3894;49.700;10.770;2023-04-15T12:06:05;4.22;;;0.68;;
7703;SDS011;3894;49.700;10.770;2023-04-15T12:11:40;3.47;;;0.80;;
7703;SDS011;3894;49.700;10.770;2023-04-15T12:14:11;4.47;;;1.00;;
7703;SDS011;3894;49.700;10.770;2023-04-15T12:16:41;3.53;;;0.70;;
7703;SDS011;3894;49.700;10.770;2023-04-15T12:19:12;2.88;;;0.43;;
7703;SDS011;3894;49.700;10.770;2023-04-15T12:21:42;3.88;;;0.82;;
7703;SDS011;3894;49.700;10.770;2023-04-15T12:24:10;3.10;;;0.73;;
7703;SDS011;3894;49.700;10.770;2023-04-15T12:26:50;4.95;;;1.02;;
7703;SDS011;3894;49.700;10.770;2023-04-15T12:29:23;3.90;;;0.95;;
7703;SDS011;3894;49.700;10.770;2023-04-15T12:32:09;3.45;;;0.88;;
7703;SDS011;3894;49.700;10.770;2023-04-15T12:34:41;3.58;;;0.50;;
7703;SDS011;3894;49.700;10.770;2023-04-15T12:37:17;3.08;;;0.63;;
7703;SDS011;3894;49.700;10.770;2023-04-15T12:39:43;3.50;;;0.70;;
7703;SDS011;3894;49.700;10.770;2023-04-15T12:42:15;3.28;;;0.80;;
7703;SDS011;3894;49.700;10.770;2023-04-15T12:44:42;3.33;;;0.60;;
7703;SDS011;3894;49.700;10.770;2023-04-15T12:47:16;2.95;;;1.25;;
7703;SDS011;3894;49.700;10.770;2023-04-15T12:49:42;2.90;;;0.50;;
7703;SDS011;3894;49.700;10.770;2023-04-15T12:52:07;2.95;;;0.52;;
7703;SDS011;3894;49.700;10.770;2023-04-15T12:54:35;3.33;;;0.75;;
7703;SDS011;3894;49.700;10.770;2023-04-15T12:57:04;3.20;;;0.63;;
7703;SDS011;3894;49.700;10.770;2023-04-15T12:59:30;4.18;;;1.02;;
7703;SDS011;3894;49.700;10.770;2023-04-15T13:01:55;3.40;;;0.73;;
7703;SDS011;3894;49.700;10.770;2023-04-15T13:04:24;3.78;;;0.90;;
7703;SDS011;3894;49.700;10.770;2023-04-15T13:06:50;3.13;;;0.63;;
7703;SDS011;3894;49.700;10.770;2023-04-15T13:09:15;3.90;;;0.95;;
7703;SDS011;3894;49.700;10.770;2023-04-15T13:11:41;2.45;;;0.60;;
7703;SDS011;3894;49.700;10.770;2023-04-15T13:14:10;2.28;;;0.45;;
7703;SDS011;3894;49.700;10.770;2023-04-15T13:16:37;4.60;;;0.93;;
7703;SDS011;3894;49.700;10.770;2023-04-15T13:21:31;3.15;;;0.63;;
7703;SDS011;3894;49.700;10.770;2023-04-15T13:23:59;2.25;;;0.43;;
7703;SDS011;3894;49.700;10.770;2023-04-15T13:26:24;3.65;;;0.65;;
7703;SDS011;3894;49.700;10.770;2023-04-15T13:28:50;3.13;;;0.50;;
7703;SDS011;3894;49.700;10.770;2023-04-15T13:31:16;3.35;;;0.60;;
7703;SDS011;3894;49.700;10.770;2023-04-15T13:33:41;1.30;;;0.25;;
7703;SDS011;3894;49.700;10.770;2023-04-15T13:36:07;2.63;;;0.32;;
7703;SDS011;3894;49.700;10.770;2023-04-15T13:38:36;2.08;;;0.40;;
7703;SDS011;3894;49.700;10.770;2023-04-15T13:41:01;6.43;;;1.40;;
7703;SDS011;3894;49.700;10.770;2023-04-15T13:43:30;30.70;;;9.32;;
7703;SDS011;3894;49.700;10.770;2023-04-15T13:45:57;7.63;;;2.30;;
7703;SDS011;3894;49.700;10.770;2023-04-15T13:48:23;4.68;;;1.60;;
7703;SDS011;3894;49.700;10.770;2023-04-15T13:50:48;6.35;;;1.80;;
7703;SDS011;3894;49.700;10.770;2023-04-15T13:53:15;4.10;;;1.20;;
7703;SDS011;3894;49.700;10.770;2023-04-15T13:55:40;4.10;;;1.35;;
7703;SDS011;3894;49.700;10.770;2023-04-15T13:58:07;8.85;;;3.95;;
7703;SDS011;3894;49.700;10.770;2023-04-15T14:00:35;11.02;;;5.25;;
7703;SDS011;3894;49.700;10.770;2023-04-15T14:03:01;3.28;;;1.23;;
7703;SDS011;3894;49.700;10.770;2023-04-15T14:05:26;4.35;;;1.80;;
7703;SDS011;3894;49.700;10.770;2023-04-15T14:07:56;4.50;;;1.63;;
7703;SDS011;3894;49.700;10.770;2023-04-15T14:10:23;10.05;;;5.95;;
7703;SDS011;3894;49.700;10.770;2023-04-15T14:12:54;5.75;;;2.22;;
7703;SDS011;3894;49.700;10.770;2023-04-15T14:15:20;4.10;;;0.95;;
7703;SDS011;3894;49.700;10.770;2023-04-15T14:17:45;3.72;;;1.15;;
7703;SDS011;3894;49.700;10.770;2023-04-15T14:20:11;10.65;;;5.80;;
7703;SDS011;3894;49.700;10.770;2023-04-15T14:22:42;14.68;;;8.57;;
7703;SDS011;3894;49.700;10.770;2023-04-15T14:25:08;5.63;;;2.03;;
7703;SDS011;3894;49.700;10.770;2023-04-15T14:27:34;8.90;;;3.25;;
7703;SDS011;3894;49.700;10.770;2023-04-15T14:30:00;7.85;;;3.70;;
7703;SDS011;3894;49.700;10.770;2023-04-15T14:32:46;8.98;;;4.53;;
7703;SDS011;3894;49.700;10.770;2023-04-15T14:35:12;10.40;;;4.60;;
7703;SDS011;3894;49.700;10.770;2023-04-15T14:37:40;12.35;;;4.63;;
7703;SDS011;3894;49.700;10.770;2023-04-15T14:40:06;8.75;;;2.53;;
7703;SDS011;3894;49.700;10.770;2023-04-15T14:42:32;5.03;;;1.17;;
7703;SDS011;3894;49.700;10.770;2023-04-15T14:44:57;8.50;;;2.40;;
7703;SDS011;3894;49.700;10.770;2023-04-15T14:47:25;5.22;;;0.95;;
7703;SDS011;3894;49.700;10.770;2023-04-15T14:49:54;4.03;;;1.23;;
7703;SDS011;3894;49.700;10.770;2023-04-15T14:52:20;3.97;;;0.93;;
7703;SDS011;3894;49.700;10.770;2023-04-15T14:54:45;9.93;;;5.05;;
7703;SDS011;3894;49.700;10.770;2023-04-15T14:57:11;6.80;;;2.78;;
7703;SDS011;3894;49.700;10.770;2023-04-15T14:59:36;12.80;;;5.07;;
7703;SDS011;3894;49.700;10.770;2023-04-15T15:02:02;4.05;;;1.00;;
7703;SDS011;3894;49.700;10.770;2023-04-15T15:04:28;4.40;;;1.08;;
7703;SDS011;3894;49.700;10.770;2023-04-15T15:06:57;3.20;;;0.90;;
7703;SDS011;3894;49.700;10.770;2023-04-15T15:09:23;3.55;;;0.82;;
7703;SDS011;3894;49.700;10.770;2023-04-15T15:11:52;8.68;;;3.72;;
7703;SDS011;3894;49.700;10.770;2023-04-15T15:14:18;5.38;;;1.65;;
7703;SDS011;3894;49.700;10.770;2023-04-15T15:16:43;8.48;;;2.55;;
7703;SDS011;3894;49.700;10.770;2023-04-15T15:19:09;6.45;;;2.85;;
7703;SDS011;3894;49.700;10.770;2023-04-15T15:21:37;8.75;;;5.85;;
7703;SDS011;3894;49.700;10.770;2023-04-15T15:24:05;7.30;;;2.80;;
7703;SDS011;3894;49.700;10.770;2023-04-15T15:26:31;10.45;;;3.35;;
7703;SDS011;3894;49.700;10.770;2023-04-15T15:28:57;14.63;;;5.65;;
7703;SDS011;3894;49.700;10.770;2023-04-15T15:31:26;9.80;;;3.45;;
7703;SDS011;3894;49.700;10.770;2023-04-15T15:33:51;13.93;;;6.75;;
7703;SDS011;3894;49.700;10.770;2023-04-15T15:36:17;13.63;;;6.95;;
7703;SDS011;3894;49.700;10.770;2023-04-15T15:38:43;6.40;;;2.35;;
7703;SDS011;3894;49.700;10.770;2023-04-15T15:41:08;7.43;;;3.53;;